Time;durP1;ratioP1;P1;durP2;ratioP2;P2;SDS_P1;SDS_P2;PMS_P1;PMS_P2;Temp;Humidity;BMP_temperature;BMP_pressure;BME280_temperature;BME280_humidity;BME280_pressure;Samples;Min_cycle;Max_cycle;Signal;HPM_P1;HPM_P2
2023/08/10 00:00:16;;;;;;;5.93;3.37;;;16.30;1.00;;;;;;4974431;28;20223;-84
2023/08/10 00:02:42;;;;;;;5.40;3.43;;;16.30;1.00;;;;;;4981523;28;20206;-85
2023/08/10 00:05:09;;;;;;;5.30;3.47;;;16.20;1.00;;;;;;4996879;28;20472;-85
2023/08/10 00:07:35;;;;;;;4.77;3.10;;;16.20;18.70;;;;;;4984574;28;20450;-84
2023/08/10 00:10:02;;;;;;;5.20;3.53;;;16.20;36.30;;;;;;4983104;28;20460;-84
2023/08/10 00:12:27;;;;;;;7.90;3.33;;;16.20;51.60;;;;;;4984539;28;20534;-84
2023/08/10 00:14:53;;;;;;;4.70;3.40;;;16.10;71.70;;;;;;4979720;28;20447;-84
2023/08/10 00:17:18;;;;;;;5.70;2.47;;;16.20;95.20;;;;;;4983931;28;20184;-84
2023/08/10 00:19:44;;;;;;;7.00;2.93;;;16.20;99.90;;;;;;4970761;28;20223;-84
2023/08/10 00:22:10;;;;;;;4.50;2.90;;;16.10;99.90;;;;;;4984408;28;20246;-84
2023/08/10 00:24:36;;;;;;;6.50;3.47;;;16.10;99.90;;;;;;4982959;28;20208;-84
2023/08/10 00:27:03;;;;;;;5.97;3.30;;;16.10;99.90;;;;;;4982407;28;20448;-84
2023/08/10 00:29:28;;;;;;;4.90;3.30;;;16.00;99.90;;;;;;4979470;28;20467;-84
2023/08/10 00:31:54;;;;;;;4.63;3.03;;;16.00;99.90;;;;;;4985551;28;20435;-84
2023/08/10 00:34:19;;;;;;;5.53;4.17;;;16.00;99.90;;;;;;4973793;28;20204;-83
2023/08/10 00:36:45;;;;;;;8.90;3.90;;;15.90;99.90;;;;;;4983470;28;20251;-84
2023/08/10 00:39:11;;;;;;;5.50;3.90;;;15.90;99.90;;;;;;4982281;28;20250;-84
2023/08/10 00:41:36;;;;;;;4.87;3.10;;;15.80;99.90;;;;;;4986869;28;20188;-84
2023/08/10 00:44:03;;;;;;;4.20;3.30;;;15.80;99.90;;;;;;4986644;28;20246;-85
2023/08/10 00:46:29;;;;;;;6.37;4.60;;;15.80;99.90;;;;;;4981810;28;20195;-84
2023/08/10 00:48:54;;;;;;;6.90;3.10;;;15.70;99.90;;;;;;4973825;28;20468;-84
2023/08/10 00:51:20;;;;;;;4.93;3.80;;;15.70;99.90;;;;;;4968948;28;20263;-83
2023/08/10 00:53:46;;;;;;;6.10;3.53;;;15.70;99.90;;;;;;4969850;28;20188;-83
2023/08/10 00:56:12;;;;;;;8.37;3.77;;;15.70;99.90;;;;;;4977345;28;20239;-83
2023/08/10 00:58:37;;;;;;;5.17;3.60;;;15.60;99.90;;;;;;4986075;28;20215;-84
2023/08/10 01:01:04;;;;;;;4.73;3.67;;;15.60;99.90;;;;;;4986015;28;20466;-83
2023/08/10 01:03:30;;;;;;;6.73;2.93;;;15.60;99.90;;;;;;4985206;28;20180;-85
2023/08/10 01:06:12;;;;;;;4.13;3.10;;;15.60;1.00;;;;;;4988863;28;20463;-84
2023/08/10 01:08:40;;;;;;;3.60;2.80;;;15.60;1.00;;;;;;4977955;28;20470;-84
2023/08/10 01:11:43;;;;;;;7.13;3.40;;;15.60;1.00;;;;;;4979195;28;20444;-84
2023/08/10 01:14:44;;;;;;;6.70;2.70;;;15.60;1.00;;;;;;4980966;28;20471;-84
2023/08/10 01:17:18;;;;;;;7.73;3.30;;;15.70;1.00;;;;;;4988536;28;20439;-84
2023/08/10 01:19:48;;;;;;;11.07;3.77;;;15.80;1.00;;;;;;4985082;28;20467;-86
2023/08/10 01:22:41;;;;;;;9.60;3.40;;;15.80;1.00;;;;;;4989828;28;20854;-85
2023/08/10 01:25:08;;;;;;;4.67;3.23;;;15.80;1.00;;;;;;4983046;28;20513;-83
2023/08/10 01:27:34;;;;;;;5.20;3.00;;;15.90;1.00;;;;;;4971644;28;20476;-85
2023/08/10 01:30:02;;;;;;;8.03;3.00;;;15.90;1.00;;;;;;4987454;28;20455;-85
2023/08/10 01:32:29;;;;;;;9.00;3.07;;;16.00;1.00;;;;;;4978823;28;20439;-84
2023/08/10 01:34:55;;;;;;;5.43;3.20;;;16.00;1.00;;;;;;4987348;28;20447;-84
2023/08/10 01:37:21;;;;;;;5.00;2.93;;;16.00;1.00;;;;;;4987491;28;20534;-85
2023/08/10 01:39:47;;;;;;;5.43;3.73;;;16.10;1.00;;;;;;4989492;28;20487;-84
2023/08/10 01:42:12;;;;;;;4.47;3.07;;;16.10;99.90;;;;;;4978274;28;20451;-86
2023/08/10 01:44:38;;;;;;;4.50;3.10;;;16.10;99.90;;;;;;4986048;28;20213;-83
2023/08/10 01:47:09;;;;;;;4.37;3.27;;;16.10;1.00;;;;;;4983772;28;20203;-84
2023/08/10 01:49:36;;;;;;;5.60;3.53;;;16.10;1.00;;;;;;4986901;28;20209;-85
2023/08/10 01:52:07;;;;;;;3.67;2.90;;;16.10;1.00;;;;;;4985385;28;20440;-85
2023/08/10 01:54:36;;;;;;;5.60;2.97;;;16.10;1.00;;;;;;4989540;28;20443;-85
2023/08/10 01:57:02;;;;;;;4.13;2.87;;;16.10;1.00;;;;;;4981842;28;20446;-85
2023/08/10 01:59:28;;;;;;;5.30;2.90;;;16.10;1.00;;;;;;4989459;28;20467;-85
2023/08/10 02:01:54;;;;;;;5.73;3.13;;;16.10;1.00;;;;;;4981826;28;20508;-83
2023/08/10 02:04:20;;;;;;;6.20;3.47;;;16.10;1.00;;;;;;4988355;28;20482;-84
2023/08/10 02:06:46;;;;;;;4.10;3.70;;;16.10;1.00;;;;;;4983896;28;20441;-86
2023/08/10 02:09:12;;;;;;;7.60;4.00;;;16.20;99.90;;;;;;4975189;28;20652;-85
2023/08/10 02:11:37;;;;;;;4.27;3.30;;;16.20;99.90;;;;;;4985670;28;20201;-85
2023/08/10 02:14:03;;;;;;;5.47;3.17;;;16.10;99.90;;;;;;4983974;28;20989;-85
2023/08/10 02:16:28;;;;;;;7.00;3.77;;;16.10;99.90;;;;;;4978806;28;20196;-85
2023/08/10 02:18:54;;;;;;;5.37;4.10;;;16.10;99.90;;;;;;4993808;28;20267;-85
2023/08/10 02:21:23;;;;;;;9.07;3.97;;;16.00;99.90;;;;;;4992608;28;20207;-86
2023/08/10 02:23:50;;;;;;;9.40;3.90;;;16.00;99.90;;;;;;4986467;28;20180;-85
2023/08/10 02:26:16;;;;;;;6.57;4.50;;;16.00;99.90;;;;;;4991290;28;20439;-83
2023/08/10 02:28:41;;;;;;;5.23;3.77;;;16.00;99.90;;;;;;4981494;28;20459;-84
2023/08/10 02:31:07;;;;;;;9.70;4.53;;;16.00;99.90;;;;;;4979032;28;20247;-83
2023/08/10 02:33:33;;;;;;;5.70;3.90;;;15.90;99.90;;;;;;4967257;28;20254;-84
2023/08/10 02:35:58;;;;;;;10.97;4.20;;;15.80;99.90;;;;;;4970217;28;20279;-85
2023/08/10 02:38:24;;;;;;;8.23;4.37;;;15.80;99.90;;;;;;4965101;28;20211;-83
2023/08/10 02:40:49;;;;;;;9.80;3.90;;;15.70;1.00;;;;;;4974492;28;20570;-84
2023/08/10 02:43:15;;;;;;;6.67;4.63;;;15.60;1.00;;;;;;4973146;28;20246;-82
2023/08/10 02:45:40;;;;;;;8.40;4.80;;;15.60;1.00;;;;;;4974717;28;20214;-82
2023/08/10 02:48:06;;;;;;;8.53;4.60;;;15.50;1.00;;;;;;4974037;28;20231;-83
2023/08/10 02:50:32;;;;;;;5.80;4.40;;;15.50;1.00;;;;;;4967580;28;20180;-83
2023/08/10 02:52:57;;;;;;;9.03;3.97;;;15.50;34.50;;;;;;4967853;28;20266;-82
2023/08/10 02:55:23;;;;;;;5.20;3.70;;;15.50;99.90;;;;;;4972234;28;20218;-83
2023/08/10 02:57:48;;;;;;;11.70;4.13;;;15.40;99.90;;;;;;4971091;28;20554;-84
2023/08/10 03:00:14;;;;;;;6.40;3.63;;;15.40;99.90;;;;;;4965261;28;20211;-83
2023/08/10 03:02:40;;;;;;;5.53;3.67;;;15.40;99.90;;;;;;4971099;28;20585;-83
2023/08/10 03:05:06;;;;;;;6.53;4.00;;;15.40;99.90;;;;;;4978147;28;20542;-83
2023/08/10 03:07:32;;;;;;;6.80;3.93;;;15.40;99.90;;;;;;4978072;28;20184;-85
2023/08/10 03:09:57;;;;;;;7.43;3.27;;;15.50;99.90;;;;;;4974713;28;21055;-83
2023/08/10 03:12:23;;;;;;;5.53;3.00;;;15.50;99.90;;;;;;4981677;28;20211;-85
2023/08/10 03:14:49;;;;;;;5.50;3.73;;;15.50;99.90;;;;;;4983550;28;20238;-84
2023/08/10 03:17:15;;;;;;;6.63;3.67;;;15.50;99.90;;;;;;4984158;28;21315;-83
2023/08/10 03:19:41;;;;;;;8.43;3.53;;;15.50;99.90;;;;;;4977019;28;20452;-84
2023/08/10 03:22:07;;;;;;;8.43;4.47;;;15.50;99.90;;;;;;4984366;28;20266;-83
2023/08/10 03:24:36;;;;;;;8.67;3.97;;;15.50;99.90;;;;;;4980875;28;20466;-84
2023/08/10 03:27:01;;;;;;;6.20;3.77;;;15.50;99.90;;;;;;4973537;28;20223;-83
2023/08/10 03:29:27;;;;;;;10.20;3.70;;;15.50;99.90;;;;;;4980371;28;20463;-84
2023/08/10 03:31:52;;;;;;;5.37;3.40;;;15.50;99.90;;;;;;4969230;28;20210;-84
2023/08/10 03:34:18;;;;;;;7.00;3.70;;;15.50;99.90;;;;;;4981080;28;20211;-83
2023/08/10 03:36:43;;;;;;;5.70;3.77;;;15.50;99.90;;;;;;4979891;28;20678;-84
2023/08/10 03:39:09;;;;;;;5.10;3.97;;;15.50;99.90;;;;;;4975426;28;20238;-84
2023/08/10 03:41:34;;;;;;;8.97;4.00;;;15.50;99.90;;;;;;4978367;28;20192;-84
2023/08/10 03:44:00;;;;;;;7.47;4.27;;;15.60;99.10;;;;;;4969444;28;20194;-84
2023/08/10 03:46:25;;;;;;;7.00;3.50;;;15.60;90.50;;;;;;4983286;28;20179;-84
2023/08/10 03:48:51;;;;;;;5.03;3.33;;;15.60;99.90;;;;;;4981599;28;20210;-85
2023/08/10 03:51:16;;;;;;;7.00;4.17;;;15.60;99.90;;;;;;4980743;28;20184;-83
2023/08/10 03:53:42;;;;;;;11.30;4.63;;;15.60;94.20;;;;;;4975114;28;20669;-84
2023/08/10 03:56:07;;;;;;;5.27;4.10;;;15.60;57.90;;;;;;4972904;28;20701;-84
2023/08/10 03:58:33;;;;;;;8.23;4.27;;;15.70;37.90;;;;;;4970038;28;20255;-82
2023/08/10 04:00:58;;;;;;;6.17;3.30;;;15.60;24.50;;;;;;4961308;28;20593;-83
2023/08/10 04:03:24;;;;;;;7.03;4.20;;;15.70;25.40;;;;;;4969299;28;20184;-84
2023/08/10 04:05:49;;;;;;;3.93;3.40;;;15.70;15.20;;;;;;4969855;28;20183;-81
2023/08/10 04:08:15;;;;;;;7.90;4.20;;;15.60;19.30;;;;;;4971146;28;20215;-83
2023/08/10 04:10:40;;;;;;;5.07;4.40;;;15.70;39.10;;;;;;4973097;28;20190;-84
2023/08/10 04:13:06;;;;;;;5.50;4.80;;;15.70;60.70;;;;;;4973534;28;20192;-83
2023/08/10 04:15:32;;;;;;;9.93;4.37;;;15.70;48.20;;;;;;4972463;28;20589;-82
2023/08/10 04:17:58;;;;;;;9.50;4.40;;;15.70;43.10;;;;;;4969963;28;20184;-84
2023/08/10 04:20:24;;;;;;;8.03;5.23;;;15.70;36.70;;;;;;4975451;28;20212;-84
2023/08/10 04:22:50;;;;;;;5.73;4.10;;;15.70;36.50;;;;;;4965637;28;20439;-82
2023/08/10 04:25:16;;;;;;;7.13;5.20;;;15.80;42.90;;;;;;4974789;28;20467;-84
2023/08/10 04:27:41;;;;;;;6.77;5.70;;;15.80;23.00;;;;;;4976236;28;20200;-84
2023/08/10 04:30:08;;;;;;;9.73;6.20;;;15.80;20.10;;;;;;4976401;28;20701;-84
2023/08/10 04:32:35;;;;;;;8.67;4.90;;;15.80;1.00;;;;;;4977073;28;20287;-83
2023/08/10 04:35:00;;;;;;;6.93;5.27;;;15.90;1.00;;;;;;4965277;28;20468;-83
2023/08/10 04:37:26;;;;;;;10.33;5.67;;;15.90;1.00;;;;;;4975334;28;22167;-84
2023/08/10 04:39:52;;;;;;;6.97;5.20;;;16.00;1.00;;;;;;4982817;28;20195;-84
2023/08/10 04:42:18;;;;;;;8.37;5.50;;;16.00;1.00;;;;;;4985367;28;20482;-84
2023/08/10 04:44:44;;;;;;;11.50;5.13;;;16.00;1.00;;;;;;4983648;28;20191;-85
2023/08/10 04:47:09;;;;;;;6.13;4.80;;;16.10;1.00;;;;;;4986357;28;20211;-84
2023/08/10 04:49:35;;;;;;;5.60;4.87;;;16.10;1.00;;;;;;4993855;28;20949;-85
2023/08/10 04:52:01;;;;;;;7.97;5.50;;;16.10;1.00;;;;;;4978584;28;20192;-84
2023/08/10 04:54:26;;;;;;;14.00;5.03;;;16.20;1.00;;;;;;4983553;28;20200;-86
2023/08/10 04:56:52;;;;;;;7.50;5.50;;;16.30;1.00;;;;;;4986425;28;20453;-84
2023/08/10 04:59:17;;;;;;;9.33;4.40;;;16.30;1.00;;;;;;4981941;28;21043;-83
2023/08/10 05:01:43;;;;;;;8.73;5.13;;;16.40;1.00;;;;;;4973813;28;20630;-85
2023/08/10 05:04:09;;;;;;;8.90;5.80;;;16.50;1.00;;;;;;4984595;28;20200;-84
2023/08/10 05:06:34;;;;;;;8.10;5.10;;;16.60;1.00;;;;;;4985974;28;20210;-83
2023/08/10 05:09:04;;;;;;;6.33;4.73;;;16.60;1.00;;;;;;4982630;28;20626;-83
2023/08/10 05:11:30;;;;;;;7.60;5.30;;;16.70;99.90;;;;;;4974897;28;20182;-84
2023/08/10 05:13:59;;;;;;;7.30;5.40;;;16.80;99.90;;;;;;4984305;28;20477;-85
2023/08/10 05:16:24;;;;;;;6.30;5.30;;;16.90;99.90;;;;;;4981923;28;20434;-83
2023/08/10 05:18:50;;;;;;;11.00;5.17;;;17.10;99.90;;;;;;4980390;28;20493;-83
2023/08/10 05:21:17;;;;;;;10.10;5.13;;;17.30;99.90;;;;;;4999547;28;20268;-85
2023/08/10 05:23:43;;;;;;;8.60;4.57;;;17.50;99.90;;;;;;4983531;28;20187;-82
2023/08/10 05:26:08;;;;;;;6.67;5.13;;;17.80;99.90;;;;;;4969921;28;20528;-83
2023/08/10 05:28:34;;;;;;;9.67;5.20;;;18.00;66.40;;;;;;4967852;28;20526;-83
2023/08/10 05:31:00;;;;;;;10.03;5.03;;;18.20;9.30;;;;;;4976067;28;20506;-83
2023/08/10 05:33:25;;;;;;;10.00;5.40;;;18.40;1.00;;;;;;4975803;28;20436;-85
2023/08/10 05:35:53;;;;;;;7.60;5.27;;;18.60;1.00;;;;;;4966774;28;20212;-82
2023/08/10 05:38:19;;;;;;;5.53;4.43;;;18.80;1.00;;;;;;4970660;28;20215;-84
2023/08/10 05:40:45;;;;;;;9.00;5.43;;;19.00;1.00;;;;;;4975237;28;20440;-84
2023/08/10 05:43:10;;;;;;;9.00;5.00;;;19.20;1.00;;;;;;4970494;28;20202;-86
2023/08/10 05:45:36;;;;;;;11.03;5.00;;;19.40;1.00;;;;;;4961311;28;20189;-85
2023/08/10 05:48:09;;;;;;;21.13;7.03;;;19.90;1.00;;;;;;4976359;28;20200;-83
2023/08/10 05:50:35;;;;;;;16.47;5.80;;;20.20;1.00;;;;;;4975941;28;20442;-84
2023/08/10 05:53:00;;;;;;;12.37;5.33;;;21.70;1.00;;;;;;4975759;28;20454;-83
2023/08/10 05:55:26;;;;;;;10.53;4.73;;;22.80;1.00;;;;;;4975149;28;20287;-84
2023/08/10 05:57:51;;;;;;;7.73;5.27;;;25.60;1.00;;;;;;4970976;28;20194;-86
2023/08/10 06:00:17;;;;;;;9.77;4.63;;;27.10;99.90;;;;;;4970658;28;20216;-84
2023/08/10 06:02:44;;;;;;;13.67;3.83;;;28.60;99.90;;;;;;4965882;28;20180;-83
2023/08/10 06:05:10;;;;;;;6.57;3.70;;;31.90;99.90;;;;;;4965601;28;20198;-84
2023/08/10 06:07:36;;;;;;;7.03;3.30;;;34.80;99.90;;;;;;4961371;28;20452;-83
2023/08/10 06:10:03;;;;;;;11.07;3.67;;;37.00;99.90;;;;;;4972078;28;20812;-84
2023/08/10 06:12:29;;;;;;;5.90;3.43;;;38.80;99.90;;;;;;4974358;28;20180;-85
2023/08/10 06:14:54;;;;;;;5.00;3.10;;;41.00;99.90;;;;;;4974980;28;20488;-85
2023/08/10 06:17:20;;;;;;;6.23;3.03;;;43.00;99.90;;;;;;4977247;28;20188;-82
2023/08/10 06:19:53;;;;;;;11.30;4.60;;;45.00;99.90;;;;;;4979001;28;20214;-82
2023/08/10 06:22:20;;;;;;;8.90;4.73;;;46.80;99.90;;;;;;4971387;28;20184;-82
2023/08/10 06:24:46;;;;;;;7.77;5.87;;;48.40;99.90;;;;;;4972908;28;20475;-83
2023/08/10 06:27:11;;;;;;;9.90;6.43;;;49.90;99.90;;;;;;4974384;28;20709;-83
2023/08/10 06:29:37;;;;;;;4.93;4.10;;;50.80;99.90;;;;;;4973974;28;20242;-83
2023/08/10 06:32:06;;;;;;;4.75;3.05;;;51.50;99.90;;;;;;4970310;28;20183;-83
2023/08/10 06:34:32;;;;;;;3.35;1.80;;;52.30;99.90;;;;;;4958857;28;20185;-82
2023/08/10 06:36:58;;;;;;;4.70;1.95;;;52.50;99.90;;;;;;4958360;28;20260;-83
2023/08/10 06:39:24;;;;;;;4.45;2.28;;;53.40;99.90;;;;;;4962422;28;20208;-84
2023/08/10 06:41:49;;;;;;;5.38;2.60;;;54.00;99.90;;;;;;4958474;28;21021;-83
2023/08/10 06:44:15;;;;;;;3.13;1.95;;;54.60;99.90;;;;;;4965300;28;20204;-83
2023/08/10 06:46:40;;;;;;;2.65;1.73;;;55.20;99.90;;;;;;4970266;28;20191;-83
2023/08/10 06:49:07;;;;;;;3.15;1.90;;;55.50;99.90;;;;;;4961331;28;20257;-86
2023/08/10 06:51:33;;;;;;;4.78;2.58;;;55.40;99.90;;;;;;4968459;28;20180;-83
2023/08/10 06:53:59;;;;;;;4.45;2.90;;;56.00;99.90;;;;;;4965354;28;20264;-84
2023/08/10 06:56:24;;;;;;;5.15;2.80;;;55.90;99.90;;;;;;4967474;28;20187;-83
2023/08/10 06:58:51;;;;;;;3.53;2.38;;;56.20;99.90;;;;;;4966541;28;20189;-83
2023/08/10 07:01:17;;;;;;;4.70;2.80;;;56.60;99.90;;;;;;4960761;28;20182;-84
2023/08/10 07:03:42;;;;;;;2.83;1.98;;;56.10;99.90;;;;;;4960533;28;20606;-84
2023/08/10 07:06:08;;;;;;;4.38;2.42;;;56.30;99.90;;;;;;4964272;28;20272;-84
2023/08/10 07:08:33;;;;;;;4.40;1.80;;;56.70;99.90;;;;;;4965579;28;20282;-84
2023/08/10 07:11:03;;;;;;;4.35;1.65;;;57.20;99.90;;;;;;4965157;28;20251;-84
2023/08/10 07:13:28;;;;;;;2.42;1.50;;;56.90;99.90;;;;;;4955677;28;20265;-84
2023/08/10 07:15:54;;;;;;;2.35;1.58;;;56.10;99.90;;;;;;4962153;28;20215;-84
2023/08/10 07:18:20;;;;;;;4.43;1.55;;;56.30;99.90;;;;;;4964008;28;20294;-83
2023/08/10 07:20:45;;;;;;;4.28;1.45;;;56.50;99.90;;;;;;4960022;28;20184;-83
2023/08/10 07:23:11;;;;;;;3.45;1.67;;;55.50;99.90;;;;;;4958535;28;20238;-83
2023/08/10 07:25:37;;;;;;;4.97;1.55;;;55.80;99.90;;;;;;4960237;28;20180;-83
2023/08/10 07:28:07;;;;;;;2.47;1.63;;;56.40;99.90;;;;;;4956828;28;20184;-83
2023/08/10 07:30:33;;;;;;;3.85;1.70;;;56.90;99.90;;;;;;4969770;28;20180;-83
2023/08/10 07:32:58;;;;;;;2.90;2.00;;;57.10;99.90;;;;;;4964147;28;20661;-83
2023/08/10 07:35:24;;;;;;;4.85;1.90;;;55.90;99.90;;;;;;4969135;28;20203;-83
2023/08/10 07:37:50;;;;;;;5.20;2.22;;;55.30;99.90;;;;;;4965731;28;20179;-84
2023/08/10 07:40:16;;;;;;;1.95;1.55;;;55.80;99.90;;;;;;4962945;28;20212;-82
2023/08/10 07:42:41;;;;;;;4.25;1.63;;;55.00;99.90;;;;;;4965837;28;20239;-83
2023/08/10 07:45:09;;;;;;;2.33;1.27;;;55.60;99.90;;;;;;4972475;28;20267;-83
2023/08/10 07:47:36;;;;;;;6.13;1.48;;;56.20;99.90;;;;;;4969019;28;20179;-85
2023/08/10 07:50:03;;;;;;;2.40;1.40;;;56.30;99.90;;;;;;4972181;28;20210;-83
2023/08/10 07:52:29;;;;;;;3.10;1.38;;;56.10;99.90;;;;;;4981175;28;20246;-86
2023/08/10 07:54:54;;;;;;;3.47;1.48;;;56.00;99.90;;;;;;4979585;28;20210;-84
2023/08/10 07:57:20;;;;;;;3.38;1.52;;;56.10;99.90;;;;;;4974472;28;21472;-83
2023/08/10 07:59:45;;;;;;;3.30;1.30;;;55.90;99.90;;;;;;4970004;28;20290;-84
2023/08/10 08:02:11;;;;;;;2.42;1.40;;;56.00;99.90;;;;;;4974761;28;20773;-83
2023/08/10 08:04:36;;;;;;;3.13;1.50;;;55.20;99.90;;;;;;4967837;28;20187;-83
2023/08/10 08:07:02;;;;;;;1.77;1.20;;;55.30;99.90;;;;;;4972657;28;20191;-84
2023/08/10 08:09:28;;;;;;;2.70;1.40;;;55.30;99.90;;;;;;4975141;28;20280;-83
2023/08/10 08:11:53;;;;;;;1.92;0.98;;;55.20;99.90;;;;;;4966443;28;20181;-82
2023/08/10 08:14:19;;;;;;;2.30;1.10;;;55.40;99.90;;;;;;4971526;28;20218;-84
2023/08/10 08:16:44;;;;;;;3.08;1.45;;;55.60;99.90;;;;;;4968689;28;20180;-84
2023/08/10 08:19:10;;;;;;;2.60;1.30;;;55.90;99.90;;;;;;4966661;28;20481;-82
2023/08/10 08:21:35;;;;;;;4.60;1.48;;;56.40;99.90;;;;;;4976572;28;20207;-84
2023/08/10 08:24:03;;;;;;;3.13;1.00;;;55.10;99.90;;;;;;4973524;28;20192;-84
2023/08/10 08:26:28;;;;;;;5.53;1.35;;;53.50;99.90;;;;;;4980815;28;20688;-83
2023/08/10 08:28:55;;;;;;;3.65;1.10;;;54.00;99.90;;;;;;4976934;28;20199;-83
2023/08/10 08:31:20;;;;;;;3.80;1.35;;;54.50;99.90;;;;;;4970374;28;20244;-84
2023/08/10 08:33:46;;;;;;;1.70;1.02;;;54.50;99.90;;;;;;4968063;28;20188;-83
2023/08/10 08:36:11;;;;;;;2.13;1.05;;;53.70;99.90;;;;;;4964226;28;20598;-84
2023/08/10 08:38:37;;;;;;;3.42;1.17;;;54.30;99.90;;;;;;4972880;28;20192;-83
2023/08/10 08:41:08;;;;;;;2.40;1.23;;;52.50;99.90;;;;;;4971468;28;20767;-85
2023/08/10 08:43:35;;;;;;;3.83;1.30;;;53.00;99.90;;;;;;4965069;28;20271;-83
2023/08/10 08:46:03;;;;;;;3.97;1.13;;;52.90;99.90;;;;;;4964586;28;20181;-82
2023/08/10 08:48:29;;;;;;;3.33;1.10;;;52.40;99.90;;;;;;4955539;28;20212;-82
2023/08/10 08:50:55;;;;;;;3.60;1.58;;;52.10;99.90;;;;;;4968048;28;20202;-83
2023/08/10 08:53:22;;;;;;;2.25;0.88;;;52.20;99.90;;;;;;4973283;28;20183;-83
2023/08/10 08:55:48;;;;;;;4.20;1.23;;;53.20;99.90;;;;;;4978383;28;20200;-82
2023/08/10 08:58:15;;;;;;;1.60;0.80;;;52.10;99.90;;;;;;4982930;28;20716;-83
2023/08/10 09:00:52;;;;;;;2.20;1.00;;;51.60;99.90;;;;;;4976933;28;20180;-84
2023/08/10 09:03:22;;;;;;;3.37;1.10;;;50.90;99.90;;;;;;4977365;28;20180;-84
2023/08/10 09:05:48;;;;;;;2.20;1.20;;;51.80;99.90;;;;;;4966412;28;20205;-83
2023/08/10 09:08:15;;;;;;;2.43;1.07;;;52.10;99.90;;;;;;4969342;28;20666;-83
2023/08/10 09:10:42;;;;;;;2.70;1.10;;;52.70;99.90;;;;;;4968994;28;20194;-85
2023/08/10 09:13:12;;;;;;;3.08;1.30;;;53.10;99.90;;;;;;4976627;28;20691;-84
2023/08/10 09:15:38;;;;;;;2.73;1.10;;;52.60;99.90;;;;;;4972212;28;20203;-84
2023/08/10 09:18:05;;;;;;;2.77;1.20;;;51.40;99.90;;;;;;4982553;28;20543;-85
2023/08/10 09:20:31;;;;;;;5.93;1.23;;;52.00;99.90;;;;;;4973632;28;20206;-83
2023/08/10 09:22:58;;;;;;;3.30;1.10;;;51.60;99.90;;;;;;4963708;28;20179;-84
2023/08/10 09:25:24;;;;;;;4.50;1.30;;;51.60;99.90;;;;;;4973510;28;20219;-84
2023/08/10 09:27:51;;;;;;;1.40;0.90;;;49.80;99.90;;;;;;4969823;28;20564;-83
2023/08/10 09:30:18;;;;;;;4.37;1.03;;;48.30;99.90;;;;;;4971586;28;20465;-83
2023/08/10 09:32:44;;;;;;;1.70;1.00;;;48.30;99.90;;;;;;4964882;28;20450;-83
2023/08/10 09:35:14;;;;;;;3.67;1.17;;;48.30;99.90;;;;;;4968077;28;20466;-83
2023/08/10 09:37:41;;;;;;;2.83;0.97;;;47.80;99.90;;;;;;4969654;28;20541;-84
2023/08/10 09:40:10;;;;;;;2.97;0.80;;;47.20;99.90;;;;;;4971306;28;20505;-83
2023/08/10 09:42:36;;;;;;;1.93;1.17;;;46.30;99.90;;;;;;4966642;28;20455;-83
2023/08/10 09:45:09;;;;;;;1.83;1.07;;;47.30;99.90;;;;;;4958962;28;20578;-85
2023/08/10 09:47:37;;;;;;;2.87;1.67;;;48.10;99.90;;;;;;4965596;28;20192;-84
2023/08/10 09:50:08;;;;;;;2.80;1.07;;;48.90;99.90;;;;;;4968305;28;20550;-83
2023/08/10 09:52:36;;;;;;;2.80;1.17;;;47.90;99.90;;;;;;4970123;28;20438;-82
2023/08/10 09:55:03;;;;;;;2.20;1.20;;;47.30;99.90;;;;;;4965271;28;20550;-83
2023/08/10 09:57:28;;;;;;;2.80;1.00;;;47.30;99.90;;;;;;4966615;28;20441;-83
2023/08/10 09:59:55;;;;;;;3.00;1.00;;;47.20;99.90;;;;;;4969808;28;20550;-82
2023/08/10 10:02:22;;;;;;;4.57;1.50;;;47.70;99.90;;;;;;4969888;28;20192;-85
2023/08/10 10:04:49;;;;;;;2.53;1.20;;;48.20;99.90;;;;;;4971978;28;20467;-83
2023/08/10 10:07:19;;;;;;;2.23;1.17;;;48.90;99.90;;;;;;4963514;28;20513;-85
2023/08/10 10:09:49;;;;;;;5.07;1.20;;;47.90;99.90;;;;;;4957546;28;20464;-83
2023/08/10 10:12:15;;;;;;;2.40;1.03;;;48.80;99.90;;;;;;4966867;28;22161;-83
2023/08/10 10:14:43;;;;;;;4.13;1.23;;;47.10;99.90;;;;;;4983225;28;20497;-83
2023/08/10 10:17:16;;;;;;;2.47;1.30;;;46.50;99.90;;;;;;4966096;28;21090;-83
2023/08/10 10:19:43;;;;;;;6.20;1.10;;;46.00;99.90;;;;;;4963271;28;20463;-83
2023/08/10 10:22:09;;;;;;;2.70;1.10;;;47.20;99.90;;;;;;4970166;28;20527;-82
2023/08/10 10:24:38;;;;;;;10.33;1.80;;;48.20;99.90;;;;;;4964678;28;20455;-83
2023/08/10 10:27:08;;;;;;;2.80;1.23;;;47.80;99.90;;;;;;4976242;28;20861;-84
2023/08/10 10:29:43;;;;;;;5.43;1.40;;;46.50;99.90;;;;;;4976858;28;20471;-83
2023/08/10 10:32:22;;;;;;;6.33;1.27;;;44.90;99.90;;;;;;4975469;28;21144;-83
2023/08/10 10:34:53;;;;;;;5.33;1.27;;;46.10;99.90;;;;;;4971584;28;20482;-85
2023/08/10 10:37:20;;;;;;;2.77;1.30;;;45.70;99.90;;;;;;4959882;28;20475;-83
2023/08/10 10:39:51;;;;;;;4.57;1.13;;;46.40;99.90;;;;;;4972266;28;20451;-82
2023/08/10 10:42:18;;;;;;;3.93;1.10;;;45.60;99.90;;;;;;4967199;28;20502;-82
2023/08/10 10:45:16;;;;;;;3.77;1.30;;;44.50;99.90;;;;;;4972318;28;20450;-83
2023/08/10 10:47:47;;;;;;;2.33;1.20;;;43.20;99.90;;;;;;4962642;28;20460;-82
2023/08/10 10:50:23;;;;;;;2.70;1.40;;;43.10;99.90;;;;;;4962417;28;20464;-83
2023/08/10 10:52:53;;;;;;;5.20;1.20;;;43.80;99.90;;;;;;4960095;28;20494;-83
2023/08/10 10:55:19;;;;;;;3.60;1.40;;;43.60;99.90;;;;;;4973353;28;20463;-84
2023/08/10 10:57:48;;;;;;;2.70;1.30;;;44.10;99.90;;;;;;4971339;28;20455;-84
2023/08/10 11:00:14;;;;;;;3.70;1.60;;;43.60;99.90;;;;;;4966430;28;20204;-83
2023/08/10 11:02:40;;;;;;;2.23;1.33;;;42.00;99.90;;;;;;4962117;28;20448;-83
2023/08/10 11:05:15;;;;;;;5.40;1.63;;;42.10;99.90;;;;;;4959299;28;20453;-83
2023/08/10 11:07:48;;;;;;;4.13;1.43;;;41.80;99.90;;;;;;4970979;28;20182;-84
2023/08/10 11:10:15;;;;;;;5.67;1.57;;;41.30;99.90;;;;;;4976180;28;20483;-83
2023/08/10 11:12:43;;;;;;;2.10;1.30;;;41.80;99.90;;;;;;4964375;28;20440;-83
2023/08/10 11:15:12;;;;;;;2.33;1.30;;;42.60;99.90;;;;;;4967386;28;20928;-83
2023/08/10 11:17:42;;;;;;;3.77;1.10;;;42.10;99.90;;;;;;4957763;28;20440;-83
2023/08/10 11:20:12;;;;;;;3.73;1.60;;;42.40;99.90;;;;;;4963044;28;20486;-83
2023/08/10 11:22:39;;;;;;;3.70;1.27;;;42.40;99.90;;;;;;4960341;28;20534;-84
2023/08/10 11:25:24;;;;;;;2.43;1.20;;;42.60;99.90;;;;;;4971901;28;20447;-84
2023/08/10 11:27:52;;;;;;;5.20;1.33;;;42.00;99.90;;;;;;4977757;28;20435;-83
2023/08/10 11:30:19;;;;;;;1.87;1.30;;;42.10;99.90;;;;;;4968581;28;20462;-83
2023/08/10 11:32:48;;;;;;;1.50;0.90;;;41.50;99.90;;;;;;4975132;28;20451;-83
2023/08/10 11:35:16;;;;;;;3.07;1.40;;;41.30;99.90;;;;;;4976634;28;20562;-84
2023/08/10 11:37:42;;;;;;;3.10;1.23;;;41.10;99.90;;;;;;4974977;28;20565;-83
2023/08/10 11:40:22;;;;;;;2.50;1.30;;;41.40;99.90;;;;;;4965620;28;20677;-84
2023/08/10 11:43:04;;;;;;;3.57;1.40;;;41.90;99.90;;;;;;4962919;28;20196;-84
2023/08/10 11:45:30;;;;;;;2.40;1.27;;;41.80;99.90;;;;;;4962706;28;20429;-83
2023/08/10 11:47:57;;;;;;;5.10;1.30;;;41.30;99.90;;;;;;4970615;28;20415;-83
2023/08/10 11:50:29;;;;;;;4.63;1.50;;;41.30;99.90;;;;;;4962818;28;20455;-84
2023/08/10 11:52:56;;;;;;;3.13;1.20;;;41.30;99.90;;;;;;4969313;28;20466;-84
2023/08/10 11:55:22;;;;;;;5.40;1.57;;;40.70;99.90;;;;;;4970372;28;20479;-84
2023/08/10 11:57:54;;;;;;;2.00;1.23;;;41.10;99.90;;;;;;4964834;28;20439;-83
2023/08/10 12:00:38;;;;;;;2.63;1.40;;;40.90;99.90;;;;;;4971757;28;20510;-84
2023/08/10 12:03:06;;;;;;;5.30;1.43;;;41.40;99.90;;;;;;4958351;28;20474;-83
2023/08/10 12:05:40;;;;;;;3.30;1.20;;;41.90;99.90;;;;;;4962180;28;20433;-85
2023/08/10 12:08:07;;;;;;;3.50;1.20;;;42.00;99.90;;;;;;4953430;28;20455;-82
2023/08/10 12:10:35;;;;;;;5.20;1.10;;;42.20;99.90;;;;;;4962884;28;20953;-83
2023/08/10 12:13:05;;;;;;;4.37;1.20;;;42.20;99.90;;;;;;4961070;28;20954;-83
2023/08/10 12:15:32;;;;;;;6.13;1.30;;;42.50;99.90;;;;;;4962917;28;20550;-84
2023/08/10 12:17:58;;;;;;;4.17;1.73;;;42.50;99.90;;;;;;4962936;28;20440;-84
2023/08/10 12:20:24;;;;;;;2.53;1.03;;;40.70;99.90;;;;;;4962093;28;20519;-84
2023/08/10 12:22:49;;;;;;;2.57;1.37;;;40.20;99.90;;;;;;4965582;28;20813;-83
2023/08/10 12:25:15;;;;;;;4.50;1.50;;;40.40;99.90;;;;;;4974587;28;20426;-84
2023/08/10 12:27:40;;;;;;;2.90;1.20;;;40.70;99.90;;;;;;4975716;28;20199;-85
2023/08/10 12:30:08;;;;;;;4.63;1.90;;;39.60;99.90;;;;;;4970264;28;20215;-84
2023/08/10 12:32:34;;;;;;;1.70;1.03;;;39.90;99.90;;;;;;4969716;28;20200;-83
2023/08/10 12:34:59;;;;;;;5.60;1.60;;;38.80;99.90;;;;;;4963114;28;21012;-81
2023/08/10 12:37:25;;;;;;;3.57;1.90;;;38.20;99.90;;;;;;4980554;28;20207;-82
2023/08/10 12:39:50;;;;;;;2.53;1.60;;;38.10;99.90;;;;;;4967043;28;20240;-83
2023/08/10 12:42:16;;;;;;;4.30;1.33;;;37.60;99.90;;;;;;4962096;28;20216;-83
2023/08/10 12:44:41;;;;;;;5.50;1.03;;;37.70;99.90;;;;;;4975710;28;20181;-85
2023/08/10 12:47:07;;;;;;;4.53;1.47;;;37.90;99.90;;;;;;4977416;28;20176;-85